sensor_id;sensor_type;location;lat;lon;timestamp;P1;durP1;ratioP1;P2;durP2;ratioP2
26806;SDS011;14380;49.910;6.792;2022-07-29T00:00:36;2.75;;;1.55;;
26806;SDS011;14380;49.910;6.792;2022-07-29T00:03:03;4.18;;;1.90;;
26806;SDS011;14380;49.910;6.792;2022-07-29T00:05:30;2.58;;;1.50;;
26806;SDS011;14380;49.910;6.792;2022-07-29T00:07:58;3.42;;;1.58;;
26806;SDS011;14380;49.910;6.792;2022-07-29T00:10:25;4.68;;;1.45;;
26806;SDS011;14380;49.910;6.792;2022-07-29T00:12:51;4.10;;;1.38;;
26806;SDS011;14380;49.910;6.792;2022-07-29T00:15:18;3.25;;;1.83;;
26806;SDS011;14380;49.910;6.792;2022-07-29T00:17:44;4.13;;;1.42;;
26806;SDS011;14380;49.910;6.792;2022-07-29T00:20:11;3.28;;;1.60;;
26806;SDS011;14380;49.910;6.792;2022-07-29T00:22:38;4.97;;;1.42;;
26806;SDS011;14380;49.910;6.792;2022-07-29T00:25:07;4.20;;;1.27;;
26806;SDS011;14380;49.910;6.792;2022-07-29T00:27:34;4.55;;;1.70;;
26806;SDS011;14380;49.910;6.792;2022-07-29T00:30:01;3.95;;;1.60;;
26806;SDS011;14380;49.910;6.792;2022-07-29T00:32:28;4.40;;;1.40;;
26806;SDS011;14380;49.910;6.792;2022-07-29T00:34:55;3.53;;;1.70;;
26806;SDS011;14380;49.910;6.792;2022-07-29T00:37:39;3.55;;;1.25;;
26806;SDS011;14380;49.910;6.792;2022-07-29T00:40:08;4.93;;;1.98;;
26806;SDS011;14380;49.910;6.792;2022-07-29T00:42:41;5.75;;;2.40;;
26806;SDS011;14380;49.910;6.792;2022-07-29T00:45:08;5.78;;;2.00;;
26806;SDS011;14380;49.910;6.792;2022-07-29T00:47:35;4.63;;;1.90;;
26806;SDS011;14380;49.910;6.792;2022-07-29T00:50:03;4.35;;;2.15;;
26806;SDS011;14380;49.910;6.792;2022-07-29T00:52:30;3.28;;;1.42;;
26806;SDS011;14380;49.910;6.792;2022-07-29T00:54:58;5.28;;;1.83;;
26806;SDS011;14380;49.910;6.792;2022-07-29T00:57:26;4.47;;;1.60;;
26806;SDS011;14380;49.910;6.792;2022-07-29T00:59:53;4.88;;;1.67;;
26806;SDS011;14380;49.910;6.792;2022-07-29T01:02:19;7.22;;;1.60;;
26806;SDS011;14380;49.910;6.792;2022-07-29T01:04:46;2.17;;;1.52;;
26806;SDS011;14380;49.910;6.792;2022-07-29T01:07:13;6.25;;;1.90;;
26806;SDS011;14380;49.910;6.792;2022-07-29T01:09:40;3.20;;;1.42;;
26806;SDS011;14380;49.910;6.792;2022-07-29T01:12:09;6.00;;;1.80;;
26806;SDS011;14380;49.910;6.792;2022-07-29T01:14:39;5.30;;;1.77;;
26806;SDS011;14380;49.910;6.792;2022-07-29T01:17:09;4.88;;;1.48;;
26806;SDS011;14380;49.910;6.792;2022-07-29T01:19:45;7.50;;;1.73;;
26806;SDS011;14380;49.910;6.792;2022-07-29T01:22:21;2.67;;;1.65;;
26806;SDS011;14380;49.910;6.792;2022-07-29T01:25:05;5.00;;;2.03;;
26806;SDS011;14380;49.910;6.792;2022-07-29T01:28:01;2.90;;;1.70;;
26806;SDS011;14380;49.910;6.792;2022-07-29T01:33:11;2.83;;;1.73;;
26806;SDS011;14380;49.910;6.792;2022-07-29T01:36:01;4.05;;;1.92;;
26806;SDS011;14380;49.910;6.792;2022-07-29T01:38:37;5.43;;;1.63;;
26806;SDS011;14380;49.910;6.792;2022-07-29T01:41:06;4.82;;;1.75;;
26806;SDS011;14380;49.910;6.792;2022-07-29T01:43:36;3.72;;;2.10;;
26806;SDS011;14380;49.910;6.792;2022-07-29T01:46:09;7.53;;;1.80;;
26806;SDS011;14380;49.910;6.792;2022-07-29T01:48:45;5.53;;;1.70;;
26806;SDS011;14380;49.910;6.792;2022-07-29T01:51:17;4.10;;;2.35;;
26806;SDS011;14380;49.910;6.792;2022-07-29T01:53:47;3.28;;;1.80;;
26806;SDS011;14380;49.910;6.792;2022-07-29T01:56:20;4.28;;;2.05;;
26806;SDS011;14380;49.910;6.792;2022-07-29T01:58:49;4.95;;;1.90;;
26806;SDS011;14380;49.910;6.792;2022-07-29T02:01:19;3.78;;;1.85;;
26806;SDS011;14380;49.910;6.792;2022-07-29T02:03:49;4.40;;;2.15;;
26806;SDS011;14380;49.910;6.792;2022-07-29T02:06:18;5.15;;;2.05;;
26806;SDS011;14380;49.910;6.792;2022-07-29T02:08:46;7.40;;;2.28;;
26806;SDS011;14380;49.910;6.792;2022-07-29T02:11:13;3.78;;;1.88;;
26806;SDS011;14380;49.910;6.792;2022-07-29T02:13:40;4.82;;;1.90;;
26806;SDS011;14380;49.910;6.792;2022-07-29T02:16:09;5.13;;;1.85;;
26806;SDS011;14380;49.910;6.792;2022-07-29T02:18:40;4.60;;;2.20;;
26806;SDS011;14380;49.910;6.792;2022-07-29T02:21:09;3.38;;;1.80;;
26806;SDS011;14380;49.910;6.792;2022-07-29T02:23:38;3.35;;;1.73;;
26806;SDS011;14380;49.910;6.792;2022-07-29T02:26:05;6.70;;;2.17;;
26806;SDS011;14380;49.910;6.792;2022-07-29T02:28:34;3.42;;;2.10;;
26806;SDS011;14380;49.910;6.792;2022-07-29T02:31:02;5.97;;;2.10;;
26806;SDS011;14380;49.910;6.792;2022-07-29T02:33:30;3.08;;;2.10;;
26806;SDS011;14380;49.910;6.792;2022-07-29T02:36:01;6.82;;;1.88;;
26806;SDS011;14380;49.910;6.792;2022-07-29T02:38:28;3.72;;;1.83;;
26806;SDS011;14380;49.910;6.792;2022-07-29T02:41:17;5.13;;;2.75;;
26806;SDS011;14380;49.910;6.792;2022-07-29T02:43:50;5.85;;;2.47;;
26806;SDS011;14380;49.910;6.792;2022-07-29T02:46:23;5.72;;;2.13;;
26806;SDS011;14380;49.910;6.792;2022-07-29T02:48:56;6.13;;;2.33;;
26806;SDS011;14380;49.910;6.792;2022-07-29T02:51:27;6.13;;;2.10;;
26806;SDS011;14380;49.910;6.792;2022-07-29T02:53:59;6.60;;;2.30;;
26806;SDS011;14380;49.910;6.792;2022-07-29T02:56:31;5.93;;;2.15;;
26806;SDS011;14380;49.910;6.792;2022-07-29T02:59:01;6.97;;;2.20;;
26806;SDS011;14380;49.910;6.792;2022-07-29T03:01:32;4.53;;;2.03;;
26806;SDS011;14380;49.910;6.792;2022-07-29T03:04:01;4.35;;;1.85;;
26806;SDS011;14380;49.910;6.792;2022-07-29T03:06:31;4.60;;;2.10;;
26806;SDS011;14380;49.910;6.792;2022-07-29T03:09:00;6.25;;;2.35;;
26806;SDS011;14380;49.910;6.792;2022-07-29T03:11:27;6.55;;;2.10;;
26806;SDS011;14380;49.910;6.792;2022-07-29T03:13:55;6.63;;;2.20;;
26806;SDS011;14380;49.910;6.792;2022-07-29T03:16:23;3.63;;;1.95;;
26806;SDS011;14380;49.910;6.792;2022-07-29T03:18:50;5.10;;;2.40;;
26806;SDS011;14380;49.910;6.792;2022-07-29T03:21:18;3.72;;;1.80;;
26806;SDS011;14380;49.910;6.792;2022-07-29T03:23:46;7.43;;;2.40;;
26806;SDS011;14380;49.910;6.792;2022-07-29T03:26:13;3.30;;;2.00;;
26806;SDS011;14380;49.910;6.792;2022-07-29T03:28:40;7.40;;;1.73;;
26806;SDS011;14380;49.910;6.792;2022-07-29T03:31:06;6.70;;;1.85;;
26806;SDS011;14380;49.910;6.792;2022-07-29T03:33:33;7.13;;;1.67;;
26806;SDS011;14380;49.910;6.792;2022-07-29T03:36:00;5.50;;;2.15;;
26806;SDS011;14380;49.910;6.792;2022-07-29T03:38:27;5.07;;;1.95;;
26806;SDS011;14380;49.910;6.792;2022-07-29T03:40:59;5.07;;;2.03;;
26806;SDS011;14380;49.910;6.792;2022-07-29T03:43:27;7.32;;;1.92;;
26806;SDS011;14380;49.910;6.792;2022-07-29T03:45:58;3.45;;;1.92;;
26806;SDS011;14380;49.910;6.792;2022-07-29T03:48:26;8.40;;;1.90;;
26806;SDS011;14380;49.910;6.792;2022-07-29T03:50:55;6.50;;;2.42;;
26806;SDS011;14380;49.910;6.792;2022-07-29T03:53:22;4.35;;;2.50;;
26806;SDS011;14380;49.910;6.792;2022-07-29T03:55:50;4.47;;;1.58;;
26806;SDS011;14380;49.910;6.792;2022-07-29T03:58:22;6.78;;;2.00;;
26806;SDS011;14380;49.910;6.792;2022-07-29T04:00:51;5.22;;;1.92;;
26806;SDS011;14380;49.910;6.792;2022-07-29T04:03:18;5.22;;;2.33;;
26806;SDS011;14380;49.910;6.792;2022-07-29T04:05:57;3.63;;;1.75;;
26806;SDS011;14380;49.910;6.792;2022-07-29T04:08:25;6.90;;;1.88;;
26806;SDS011;14380;49.910;6.792;2022-07-29T04:10:51;7.10;;;2.25;;
26806;SDS011;14380;49.910;6.792;2022-07-29T04:13:18;7.45;;;1.90;;
26806;SDS011;14380;49.910;6.792;2022-07-29T04:15:46;4.85;;;1.95;;
26806;SDS011;14380;49.910;6.792;2022-07-29T04:18:13;2.42;;;1.70;;
26806;SDS011;14380;49.910;6.792;2022-07-29T04:20:40;6.47;;;2.08;;
26806;SDS011;14380;49.910;6.792;2022-07-29T04:23:06;7.05;;;1.70;;
26806;SDS011;14380;49.910;6.792;2022-07-29T04:25:36;5.38;;;1.80;;
26806;SDS011;14380;49.910;6.792;2022-07-29T04:28:03;5.25;;;2.00;;
26806;SDS011;14380;49.910;6.792;2022-07-29T04:30:31;3.58;;;1.63;;
26806;SDS011;14380;49.910;6.792;2022-07-29T04:33:01;4.90;;;1.50;;
26806;SDS011;14380;49.910;6.792;2022-07-29T04:35:29;6.50;;;1.85;;
26806;SDS011;14380;49.910;6.792;2022-07-29T04:37:56;5.03;;;1.45;;
26806;SDS011;14380;49.910;6.792;2022-07-29T04:40:23;6.30;;;1.60;;
26806;SDS011;14380;49.910;6.792;2022-07-29T04:42:49;7.75;;;1.90;;
26806;SDS011;14380;49.910;6.792;2022-07-29T04:45:16;3.15;;;1.75;;
26806;SDS011;14380;49.910;6.792;2022-07-29T04:47:43;7.82;;;2.10;;
26806;SDS011;14380;49.910;6.792;2022-07-29T04:50:11;4.28;;;1.95;;
26806;SDS011;14380;49.910;6.792;2022-07-29T04:52:38;4.40;;;1.95;;
26806;SDS011;14380;49.910;6.792;2022-07-29T04:55:05;3.05;;;1.70;;
26806;SDS011;14380;49.910;6.792;2022-07-29T04:57:32;5.80;;;2.10;;
26806;SDS011;14380;49.910;6.792;2022-07-29T04:59:59;4.20;;;1.77;;
26806;SDS011;14380;49.910;6.792;2022-07-29T05:02:26;4.57;;;1.77;;
26806;SDS011;14380;49.910;6.792;2022-07-29T05:04:53;5.70;;;2.15;;
26806;SDS011;14380;49.910;6.792;2022-07-29T05:07:20;4.88;;;1.73;;
26806;SDS011;14380;49.910;6.792;2022-07-29T05:09:47;2.88;;;1.77;;
26806;SDS011;14380;49.910;6.792;2022-07-29T05:12:14;2.90;;;1.60;;
26806;SDS011;14380;49.910;6.792;2022-07-29T05:14:41;4.25;;;1.70;;
26806;SDS011;14380;49.910;6.792;2022-07-29T05:17:07;5.25;;;2.05;;
26806;SDS011;14380;49.910;6.792;2022-07-29T05:19:34;6.97;;;2.10;;
26806;SDS011;14380;49.910;6.792;2022-07-29T05:22:01;3.22;;;1.83;;
26806;SDS011;14380;49.910;6.792;2022-07-29T05:24:29;3.45;;;1.88;;
26806;SDS011;14380;49.910;6.792;2022-07-29T05:26:55;5.20;;;1.63;;
26806;SDS011;14380;49.910;6.792;2022-07-29T05:29:22;4.15;;;1.55;;
26806;SDS011;14380;49.910;6.792;2022-07-29T05:31:49;5.72;;;2.03;;
26806;SDS011;14380;49.910;6.792;2022-07-29T05:34:16;5.45;;;1.60;;
26806;SDS011;14380;49.910;6.792;2022-07-29T05:36:43;4.38;;;1.70;;
26806;SDS011;14380;49.910;6.792;2022-07-29T05:39:10;6.75;;;1.80;;
26806;SDS011;14380;49.910;6.792;2022-07-29T05:41:39;6.78;;;1.83;;
26806;SDS011;14380;49.910;6.792;2022-07-29T05:44:06;5.78;;;1.98;;
26806;SDS011;14380;49.910;6.792;2022-07-29T05:46:33;3.30;;;1.52;;
26806;SDS011;14380;49.910;6.792;2022-07-29T05:48:59;4.57;;;1.77;;
26806;SDS011;14380;49.910;6.792;2022-07-29T05:51:27;5.22;;;1.63;;
26806;SDS011;14380;49.910;6.792;2022-07-29T05:53:54;5.53;;;1.73;;
26806;SDS011;14380;49.910;6.792;2022-07-29T05:56:21;2.28;;;1.80;;
26806;SDS011;14380;49.910;6.792;2022-07-29T05:58:49;4.05;;;1.90;;
26806;SDS011;14380;49.910;6.792;2022-07-29T06:01:16;4.43;;;1.83;;
26806;SDS011;14380;49.910;6.792;2022-07-29T06:03:43;5.75;;;1.75;;
26806;SDS011;14380;49.910;6.792;2022-07-29T06:06:10;6.05;;;1.60;;
26806;SDS011;14380;49.910;6.792;2022-07-29T06:08:37;4.57;;;1.48;;
26806;SDS011;14380;49.910;6.792;2022-07-29T06:11:05;3.08;;;1.85;;
26806;SDS011;14380;49.910;6.792;2022-07-29T06:13:32;6.40;;;2.05;;
26806;SDS011;14380;49.910;6.792;2022-07-29T06:16:00;5.72;;;1.65;;
26806;SDS011;14380;49.910;6.792;2022-07-29T06:18:27;8.63;;;1.73;;
26806;SDS011;14380;49.910;6.792;2022-07-29T06:20:54;13.10;;;2.10;;
26806;SDS011;14380;49.910;6.792;2022-07-29T06:23:20;16.27;;;2.28;;
26806;SDS011;14380;49.910;6.792;2022-07-29T06:25:47;22.67;;;2.67;;
26806;SDS011;14380;49.910;6.792;2022-07-29T06:28:14;21.10;;;3.10;;
26806;SDS011;14380;49.910;6.792;2022-07-29T06:30:41;18.90;;;2.63;;
26806;SDS011;14380;49.910;6.792;2022-07-29T06:33:09;23.35;;;2.40;;
26806;SDS011;14380;49.910;6.792;2022-07-29T06:35:35;14.43;;;2.30;;
26806;SDS011;14380;49.910;6.792;2022-07-29T06:38:04;11.82;;;1.95;;
26806;SDS011;14380;49.910;6.792;2022-07-29T06:40:30;7.15;;;1.70;;
26806;SDS011;14380;49.910;6.792;2022-07-29T06:43:14;6.00;;;1.63;;
26806;SDS011;14380;49.910;6.792;2022-07-29T06:45:41;7.60;;;1.95;;
26806;SDS011;14380;49.910;6.792;2022-07-29T06:48:10;8.90;;;1.95;;
26806;SDS011;14380;49.910;6.792;2022-07-29T06:50:36;7.57;;;1.30;;
26806;SDS011;14380;49.910;6.792;2022-07-29T06:53:04;8.95;;;1.88;;
26806;SDS011;14380;49.910;6.792;2022-07-29T06:55:31;12.70;;;1.65;;
26806;SDS011;14380;49.910;6.792;2022-07-29T06:57:58;12.82;;;1.67;;
26806;SDS011;14380;49.910;6.792;2022-07-29T07:00:24;9.10;;;1.58;;
26806;SDS011;14380;49.910;6.792;2022-07-29T07:02:51;3.95;;;1.30;;
26806;SDS011;14380;49.910;6.792;2022-07-29T07:05:19;6.85;;;1.20;;
26806;SDS011;14380;49.910;6.792;2022-07-29T07:07:46;5.00;;;1.40;;
26806;SDS011;14380;49.910;6.792;2022-07-29T07:10:13;11.35;;;1.52;;
26806;SDS011;14380;49.910;6.792;2022-07-29T07:12:39;6.95;;;1.10;;
26806;SDS011;14380;49.910;6.792;2022-07-29T07:15:06;8.18;;;1.70;;
26806;SDS011;14380;49.910;6.792;2022-07-29T07:17:33;5.50;;;1.70;;
26806;SDS011;14380;49.910;6.792;2022-07-29T07:20:00;6.78;;;1.67;;
26806;SDS011;14380;49.910;6.792;2022-07-29T07:22:28;7.95;;;1.65;;
26806;SDS011;14380;49.910;6.792;2022-07-29T07:24:55;5.35;;;1.60;;
26806;SDS011;14380;49.910;6.792;2022-07-29T07:27:21;7.35;;;1.35;;
26806;SDS011;14380;49.910;6.792;2022-07-29T07:29:48;8.55;;;1.50;;
26806;SDS011;14380;49.910;6.792;2022-07-29T07:32:15;6.85;;;1.67;;
26806;SDS011;14380;49.910;6.792;2022-07-29T07:34:42;5.20;;;1.60;;
26806;SDS011;14380;49.910;6.792;2022-07-29T07:37:08;5.95;;;1.50;;
26806;SDS011;14380;49.910;6.792;2022-07-29T07:39:37;5.95;;;1.70;;
26806;SDS011;14380;49.910;6.792;2022-07-29T07:42:03;4.07;;;1.50;;
26806;SDS011;14380;49.910;6.792;2022-07-29T07:44:30;6.03;;;1.60;;
26806;SDS011;14380;49.910;6.792;2022-07-29T07:46:57;6.13;;;1.30;;
26806;SDS011;14380;49.910;6.792;2022-07-29T07:49:23;4.20;;;1.30;;
26806;SDS011;14380;49.910;6.792;2022-07-29T07:51:50;7.45;;;1.67;;
26806;SDS011;14380;49.910;6.792;2022-07-29T07:54:17;2.78;;;1.27;;
26806;SDS011;14380;49.910;6.792;2022-07-29T07:56:45;4.85;;;1.58;;
26806;SDS011;14380;49.910;6.792;2022-07-29T07:59:14;5.45;;;1.40;;
26806;SDS011;14380;49.910;6.792;2022-07-29T08:01:40;6.13;;;1.45;;
26806;SDS011;14380;49.910;6.792;2022-07-29T08:04:07;6.95;;;1.50;;
26806;SDS011;14380;49.910;6.792;2022-07-29T08:06:34;7.60;;;1.40;;
26806;SDS011;14380;49.910;6.792;2022-07-29T08:09:01;5.07;;;1.50;;
26806;SDS011;14380;49.910;6.792;2022-07-29T08:11:28;3.28;;;1.42;;
26806;SDS011;14380;49.910;6.792;2022-07-29T08:13:56;5.55;;;1.50;;
26806;SDS011;14380;49.910;6.792;2022-07-29T08:16:22;5.53;;;1.50;;
26806;SDS011;14380;49.910;6.792;2022-07-29T08:18:50;4.22;;;1.25;;
26806;SDS011;14380;49.910;6.792;2022-07-29T08:21:22;5.32;;;1.48;;
26806;SDS011;14380;49.910;6.792;2022-07-29T08:23:49;12.02;;;1.55;;
26806;SDS011;14380;49.910;6.792;2022-07-29T08:26:18;5.30;;;1.50;;
26806;SDS011;14380;49.910;6.792;2022-07-29T08:28:47;5.50;;;1.10;;
26806;SDS011;14380;49.910;6.792;2022-07-29T08:31:17;6.68;;;1.60;;
26806;SDS011;14380;49.910;6.792;2022-07-29T08:33:44;7.20;;;1.58;;
26806;SDS011;14380;49.910;6.792;2022-07-29T08:36:10;4.47;;;1.58;;
26806;SDS011;14380;49.910;6.792;2022-07-29T08:38:38;5.53;;;1.67;;
26806;SDS011;14380;49.910;6.792;2022-07-29T08:41:04;2.75;;;1.52;;
26806;SDS011;14380;49.910;6.792;2022-07-29T08:43:31;5.55;;;1.40;;
26806;SDS011;14380;49.910;6.792;2022-07-29T08:46:00;5.40;;;1.88;;
26806;SDS011;14380;49.910;6.792;2022-07-29T08:48:28;7.15;;;1.67;;
26806;SDS011;14380;49.910;6.792;2022-07-29T08:50:56;3.42;;;1.60;;
26806;SDS011;14380;49.910;6.792;2022-07-29T08:53:24;6.65;;;1.63;;
26806;SDS011;14380;49.910;6.792;2022-07-29T08:55:54;6.03;;;1.58;;
26806;SDS011;14380;49.910;6.792;2022-07-29T08:58:21;4.32;;;1.42;;
26806;SDS011;14380;49.910;6.792;2022-07-29T09:00:50;4.45;;;1.52;;
26806;SDS011;14380;49.910;6.792;2022-07-29T09:03:19;8.35;;;1.35;;
26806;SDS011;14380;49.910;6.792;2022-07-29T09:05:50;10.88;;;2.53;;
26806;SDS011;14380;49.910;6.792;2022-07-29T09:08:17;2.72;;;1.52;;
26806;SDS011;14380;49.910;6.792;2022-07-29T09:10:45;7.68;;;2.20;;
26806;SDS011;14380;49.910;6.792;2022-07-29T09:13:11;5.03;;;1.67;;
26806;SDS011;14380;49.910;6.792;2022-07-29T09:15:38;4.18;;;1.50;;
26806;SDS011;14380;49.910;6.792;2022-07-29T09:18:05;2.95;;;1.73;;
26806;SDS011;14380;49.910;6.792;2022-07-29T09:20:31;5.70;;;1.77;;
26806;SDS011;14380;49.910;6.792;2022-07-29T09:23:13;6.10;;;1.65;;
26806;SDS011;14380;49.910;6.792;2022-07-29T09:25:40;7.07;;;2.08;;
26806;SDS011;14380;49.910;6.792;2022-07-29T09:28:08;4.53;;;1.80;;
26806;SDS011;14380;49.910;6.792;2022-07-29T09:30:36;3.47;;;1.60;;
26806;SDS011;14380;49.910;6.792;2022-07-29T09:33:16;3.70;;;1.63;;
26806;SDS011;14380;49.910;6.792;2022-07-29T09:35:43;7.60;;;2.28;;
26806;SDS011;14380;49.910;6.792;2022-07-29T09:38:10;5.38;;;1.73;;
26806;SDS011;14380;49.910;6.792;2022-07-29T09:40:39;4.82;;;1.90;;
26806;SDS011;14380;49.910;6.792;2022-07-29T09:43:09;9.63;;;1.95;;
26806;SDS011;14380;49.910;6.792;2022-07-29T09:45:37;5.95;;;1.83;;
26806;SDS011;14380;49.910;6.792;2022-07-29T09:48:12;10.40;;;1.90;;
26806;SDS011;14380;49.910;6.792;2022-07-29T09:53:08;7.63;;;2.20;;
26806;SDS011;14380;49.910;6.792;2022-07-29T09:55:47;7.70;;;1.92;;
26806;SDS011;14380;49.910;6.792;2022-07-29T09:58:15;7.78;;;1.67;;
26806;SDS011;14380;49.910;6.792;2022-07-29T10:00:43;9.25;;;2.10;;
26806;SDS011;14380;49.910;6.792;2022-07-29T10:03:11;6.90;;;1.77;;
26806;SDS011;14380;49.910;6.792;2022-07-29T10:05:38;7.05;;;1.67;;
26806;SDS011;14380;49.910;6.792;2022-07-29T10:08:07;5.85;;;2.00;;
26806;SDS011;14380;49.910;6.792;2022-07-29T10:10:35;4.88;;;1.77;;
26806;SDS011;14380;49.910;6.792;2022-07-29T10:13:06;4.45;;;1.88;;
26806;SDS011;14380;49.910;6.792;2022-07-29T10:15:35;4.65;;;2.10;;
26806;SDS011;14380;49.910;6.792;2022-07-29T10:18:05;6.45;;;1.60;;
26806;SDS011;14380;49.910;6.792;2022-07-29T10:20:33;4.93;;;1.40;;
26806;SDS011;14380;49.910;6.792;2022-07-29T10:23:00;12.52;;;1.70;;
26806;SDS011;14380;49.910;6.792;2022-07-29T10:25:27;2.53;;;1.40;;
26806;SDS011;14380;49.910;6.792;2022-07-29T10:27:54;5.50;;;1.60;;
26806;SDS011;14380;49.910;6.792;2022-07-29T10:30:22;5.70;;;1.73;;
26806;SDS011;14380;49.910;6.792;2022-07-29T10:33:06;3.30;;;1.50;;
26806;SDS011;14380;49.910;6.792;2022-07-29T10:35:46;5.57;;;1.75;;
26806;SDS011;14380;49.910;6.792;2022-07-29T10:41:19;3.42;;;1.40;;
26806;SDS011;14380;49.910;6.792;2022-07-29T10:44:00;5.97;;;2.10;;
26806;SDS011;14380;49.910;6.792;2022-07-29T10:46:34;3.85;;;1.35;;
26806;SDS011;14380;49.910;6.792;2022-07-29T10:49:05;8.63;;;2.10;;
26806;SDS011;14380;49.910;6.792;2022-07-29T10:54:42;4.57;;;1.50;;
26806;SDS011;14380;49.910;6.792;2022-07-29T10:57:18;6.15;;;1.50;;
26806;SDS011;14380;49.910;6.792;2022-07-29T10:59:47;6.03;;;1.95;;
26806;SDS011;14380;49.910;6.792;2022-07-29T11:05:09;7.43;;;1.67;;
26806;SDS011;14380;49.910;6.792;2022-07-29T11:07:39;6.10;;;1.40;;
26806;SDS011;14380;49.910;6.792;2022-07-29T11:10:26;5.50;;;1.60;;
26806;SDS011;14380;49.910;6.792;2022-07-29T11:12:53;5.30;;;1.40;;
26806;SDS011;14380;49.910;6.792;2022-07-29T11:15:20;5.00;;;1.38;;
26806;SDS011;14380;49.910;6.792;2022-07-29T11:20:37;8.52;;;1.52;;
26806;SDS011;14380;49.910;6.792;2022-07-29T11:23:19;9.68;;;1.20;;
26806;SDS011;14380;49.910;6.792;2022-07-29T11:28:50;4.85;;;1.33;;
26806;SDS011;14380;49.910;6.792;2022-07-29T11:31:31;1.70;;;1.00;;
26806;SDS011;14380;49.910;6.792;2022-07-29T11:40:13;4.35;;;1.30;;
26806;SDS011;14380;49.910;6.792;2022-07-29T11:42:42;7.20;;;1.27;;
26806;SDS011;14380;49.910;6.792;2022-07-29T11:45:11;2.15;;;1.20;;
26806;SDS011;14380;49.910;6.792;2022-07-29T11:47:40;5.13;;;1.45;;
26806;SDS011;14380;49.910;6.792;2022-07-29T11:50:11;2.58;;;1.60;;
26806;SDS011;14380;49.910;6.792;2022-07-29T11:52:39;2.72;;;1.30;;
26806;SDS011;14380;49.910;6.792;2022-07-29T11:55:11;1.42;;;1.02;;
26806;SDS011;14380;49.910;6.792;2022-07-29T11:57:45;4.07;;;1.27;;
26806;SDS011;14380;49.910;6.792;2022-07-29T12:00:16;6.57;;;1.42;;
26806;SDS011;14380;49.910;6.792;2022-07-29T12:02:47;3.78;;;1.73;;
26806;SDS011;14380;49.910;6.792;2022-07-29T12:05:16;2.88;;;1.05;;
26806;SDS011;14380;49.910;6.792;2022-07-29T12:07:44;3.90;;;1.50;;
26806;SDS011;14380;49.910;6.792;2022-07-29T12:10:11;5.30;;;1.30;;
26806;SDS011;14380;49.910;6.792;2022-07-29T12:12:38;8.63;;;1.42;;
26806;SDS011;14380;49.910;6.792;2022-07-29T12:15:11;6.18;;;1.95;;
26806;SDS011;14380;49.910;6.792;2022-07-29T12:17:39;3.25;;;1.45;;
26806;SDS011;14380;49.910;6.792;2022-07-29T12:20:07;7.47;;;1.40;;
26806;SDS011;14380;49.910;6.792;2022-07-29T12:22:35;4.43;;;1.60;;
26806;SDS011;14380;49.910;6.792;2022-07-29T12:25:05;2.10;;;1.20;;
26806;SDS011;14380;49.910;6.792;2022-07-29T12:27:33;3.85;;;1.10;;
26806;SDS011;14380;49.910;6.792;2022-07-29T12:30:00;7.95;;;1.20;;
26806;SDS011;14380;49.910;6.792;2022-07-29T12:32:32;3.55;;;1.40;;
26806;SDS011;14380;49.910;6.792;2022-07-29T12:35:00;3.40;;;1.23;;
26806;SDS011;14380;49.910;6.792;2022-07-29T12:37:30;6.78;;;1.20;;
26806;SDS011;14380;49.910;6.792;2022-07-29T12:39:59;4.32;;;1.27;;
26806;SDS011;14380;49.910;6.792;2022-07-29T12:42:25;7.22;;;1.40;;
26806;SDS011;14380;49.910;6.792;2022-07-29T12:44:52;7.32;;;1.60;;
26806;SDS011;14380;49.910;6.792;2022-07-29T12:47:19;3.13;;;1.33;;
26806;SDS011;14380;49.910;6.792;2022-07-29T12:49:46;6.47;;;1.60;;
26806;SDS011;14380;49.910;6.792;2022-07-29T12:52:23;5.55;;;1.33;;
26806;SDS011;14380;49.910;6.792;2022-07-29T12:54:54;5.47;;;1.30;;
26806;SDS011;14380;49.910;6.792;2022-07-29T12:57:22;2.38;;;1.30;;
26806;SDS011;14380;49.910;6.792;2022-07-29T12:59:59;2.30;;;1.13;;
26806;SDS011;14380;49.910;6.792;2022-07-29T13:02:28;2.55;;;1.50;;
26806;SDS011;14380;49.910;6.792;2022-07-29T13:04:55;3.95;;;1.35;;
26806;SDS011;14380;49.910;6.792;2022-07-29T13:07:26;2.75;;;1.20;;
26806;SDS011;14380;49.910;6.792;2022-07-29T13:09:54;4.35;;;1.65;;
26806;SDS011;14380;49.910;6.792;2022-07-29T13:12:36;3.70;;;1.40;;
26806;SDS011;14380;49.910;6.792;2022-07-29T13:15:11;5.07;;;1.30;;
26806;SDS011;14380;49.910;6.792;2022-07-29T13:17:39;1.98;;;1.17;;
26806;SDS011;14380;49.910;6.792;2022-07-29T13:20:09;3.00;;;1.10;;
26806;SDS011;14380;49.910;6.792;2022-07-29T13:22:39;3.60;;;1.38;;
26806;SDS011;14380;49.910;6.792;2022-07-29T13:25:07;2.80;;;1.10;;
26806;SDS011;14380;49.910;6.792;2022-07-29T13:27:37;4.57;;;1.30;;
26806;SDS011;14380;49.910;6.792;2022-07-29T13:30:05;5.32;;;1.27;;
26806;SDS011;14380;49.910;6.792;2022-07-29T13:32:33;3.78;;;1.30;;
26806;SDS011;14380;49.910;6.792;2022-07-29T13:35:02;5.63;;;1.20;;
26806;SDS011;14380;49.910;6.792;2022-07-29T13:37:30;4.43;;;1.52;;
26806;SDS011;14380;49.910;6.792;2022-07-29T13:39:59;5.15;;;1.42;;
26806;SDS011;14380;49.910;6.792;2022-07-29T13:42:27;2.47;;;1.10;;
26806;SDS011;14380;49.910;6.792;2022-07-29T13:44:56;4.03;;;1.48;;
26806;SDS011;14380;49.910;6.792;2022-07-29T13:47:23;2.70;;;1.13;;
26806;SDS011;14380;49.910;6.792;2022-07-29T13:49:50;2.30;;;1.10;;
26806;SDS011;14380;49.910;6.792;2022-07-29T13:52:18;2.45;;;1.10;;
26806;SDS011;14380;49.910;6.792;2022-07-29T13:54:45;2.38;;;1.02;;
26806;SDS011;14380;49.910;6.792;2022-07-29T13:57:12;1.27;;;1.02;;
26806;SDS011;14380;49.910;6.792;2022-07-29T13:59:39;3.88;;;1.30;;
26806;SDS011;14380;49.910;6.792;2022-07-29T14:02:08;4.82;;;1.17;;
26806;SDS011;14380;49.910;6.792;2022-07-29T14:04:37;3.67;;;1.58;;
26806;SDS011;14380;49.910;6.792;2022-07-29T14:07:04;3.03;;;1.30;;
26806;SDS011;14380;49.910;6.792;2022-07-29T14:09:31;1.92;;;1.20;;
26806;SDS011;14380;49.910;6.792;2022-07-29T14:11:58;3.40;;;1.10;;
26806;SDS011;14380;49.910;6.792;2022-07-29T14:14:27;3.65;;;1.20;;
26806;SDS011;14380;49.910;6.792;2022-07-29T14:16:54;4.88;;;0.98;;
26806;SDS011;14380;49.910;6.792;2022-07-29T14:19:22;3.53;;;1.10;;
26806;SDS011;14380;49.910;6.792;2022-07-29T14:21:48;1.98;;;0.80;;
26806;SDS011;14380;49.910;6.792;2022-07-29T14:24:15;3.33;;;1.08;;
26806;SDS011;14380;49.910;6.792;2022-07-29T14:26:42;3.28;;;0.90;;
26806;SDS011;14380;49.910;6.792;2022-07-29T14:29:08;2.25;;;0.90;;
26806;SDS011;14380;49.910;6.792;2022-07-29T14:31:35;3.42;;;0.80;;
26806;SDS011;14380;49.910;6.792;2022-07-29T14:34:02;5.97;;;0.85;;
26806;SDS011;14380;49.910;6.792;2022-07-29T14:36:30;2.72;;;0.95;;
26806;SDS011;14380;49.910;6.792;2022-07-29T14:38:56;2.13;;;1.02;;
26806;SDS011;14380;49.910;6.792;2022-07-29T14:41:23;5.50;;;1.40;;
26806;SDS011;14380;49.910;6.792;2022-07-29T14:43:50;2.15;;;0.90;;
26806;SDS011;14380;49.910;6.792;2022-07-29T14:46:18;2.92;;;1.00;;
26806;SDS011;14380;49.910;6.792;2022-07-29T14:48:45;3.50;;;1.13;;
26806;SDS011;14380;49.910;6.792;2022-07-29T14:51:11;3.80;;;1.00;;
26806;SDS011;14380;49.910;6.792;2022-07-29T14:53:40;2.80;;;0.75;;
26806;SDS011;14380;49.910;6.792;2022-07-29T14:56:06;4.53;;;1.40;;
26806;SDS011;14380;49.910;6.792;2022-07-29T14:58:33;4.50;;;1.35;;
26806;SDS011;14380;49.910;6.792;2022-07-29T15:01:00;3.72;;;1.30;;
26806;SDS011;14380;49.910;6.792;2022-07-29T15:03:27;1.60;;;1.10;;
26806;SDS011;14380;49.910;6.792;2022-07-29T15:05:54;6.65;;;1.30;;
26806;SDS011;14380;49.910;6.792;2022-07-29T15:08:20;6.88;;;1.70;;
26806;SDS011;14380;49.910;6.792;2022-07-29T15:10:49;13.00;;;2.22;;
26806;SDS011;14380;49.910;6.792;2022-07-29T15:13:16;6.70;;;2.00;;
26806;SDS011;14380;49.910;6.792;2022-07-29T15:15:43;5.50;;;1.80;;
26806;SDS011;14380;49.910;6.792;2022-07-29T15:18:10;10.75;;;2.03;;
26806;SDS011;14380;49.910;6.792;2022-07-29T15:20:37;5.60;;;1.90;;
26806;SDS011;14380;49.910;6.792;2022-07-29T15:23:03;6.72;;;1.63;;